sensor_id;sensor_type;location;lat;lon;timestamp;P1;durP1;ratioP1;P2;durP2;ratioP2
1751;SDS011;873;47.696;8.068;2022-12-18T00:02:10;15.67;;;8.57;;
1751;SDS011;873;47.696;8.068;2022-12-18T00:04:35;17.93;;;8.37;;
1751;SDS011;873;47.696;8.068;2022-12-18T00:07:01;15.90;;;7.77;;
1751;SDS011;873;47.696;8.068;2022-12-18T00:09:26;13.23;;;7.27;;
1751;SDS011;873;47.696;8.068;2022-12-18T00:11:52;14.30;;;7.47;;
1751;SDS011;873;47.696;8.068;2022-12-18T00:14:17;11.90;;;7.00;;
1751;SDS011;873;47.696;8.068;2022-12-18T00:16:44;19.27;;;8.37;;
1751;SDS011;873;47.696;8.068;2022-12-18T00:19:10;11.32;;;6.93;;
1751;SDS011;873;47.696;8.068;2022-12-18T00:21:39;12.40;;;7.13;;
1751;SDS011;873;47.696;8.068;2022-12-18T00:24:05;15.57;;;7.75;;
1751;SDS011;873;47.696;8.068;2022-12-18T00:26:32;15.77;;;8.07;;
1751;SDS011;873;47.696;8.068;2022-12-18T00:28:59;16.02;;;7.90;;
1751;SDS011;873;47.696;8.068;2022-12-18T00:31:26;13.52;;;7.55;;
1751;SDS011;873;47.696;8.068;2022-12-18T00:33:53;18.97;;;8.83;;
1751;SDS011;873;47.696;8.068;2022-12-18T00:36:21;16.92;;;8.48;;
1751;SDS011;873;47.696;8.068;2022-12-18T00:38:48;15.70;;;8.45;;
1751;SDS011;873;47.696;8.068;2022-12-18T00:41:14;16.00;;;8.67;;
1751;SDS011;873;47.696;8.068;2022-12-18T00:44:01;32.05;;;9.48;;
1751;SDS011;873;47.696;8.068;2022-12-18T00:46:27;21.80;;;9.32;;
1751;SDS011;873;47.696;8.068;2022-12-18T00:48:53;31.53;;;10.73;;
1751;SDS011;873;47.696;8.068;2022-12-18T00:51:18;33.53;;;10.63;;
1751;SDS011;873;47.696;8.068;2022-12-18T00:53:43;43.37;;;11.23;;
1751;SDS011;873;47.696;8.068;2022-12-18T00:56:09;34.57;;;11.60;;
1751;SDS011;873;47.696;8.068;2022-12-18T00:58:34;39.07;;;11.60;;
1751;SDS011;873;47.696;8.068;2022-12-18T01:01:00;27.23;;;11.40;;
1751;SDS011;873;47.696;8.068;2022-12-18T01:03:26;33.53;;;12.27;;
1751;SDS011;873;47.696;8.068;2022-12-18T01:05:51;25.43;;;11.93;;
1751;SDS011;873;47.696;8.068;2022-12-18T01:08:17;29.67;;;11.70;;
1751;SDS011;873;47.696;8.068;2022-12-18T01:10:42;28.53;;;11.53;;
1751;SDS011;873;47.696;8.068;2022-12-18T01:13:07;28.67;;;12.13;;
1751;SDS011;873;47.696;8.068;2022-12-18T01:15:33;31.33;;;12.97;;
1751;SDS011;873;47.696;8.068;2022-12-18T01:17:59;39.53;;;13.17;;
1751;SDS011;873;47.696;8.068;2022-12-18T01:20:24;33.10;;;12.57;;
1751;SDS011;873;47.696;8.068;2022-12-18T01:22:50;29.83;;;12.13;;
1751;SDS011;873;47.696;8.068;2022-12-18T01:25:15;32.47;;;12.93;;
1751;SDS011;873;47.696;8.068;2022-12-18T01:27:41;41.67;;;12.87;;
1751;SDS011;873;47.696;8.068;2022-12-18T01:30:06;33.00;;;12.60;;
1751;SDS011;873;47.696;8.068;2022-12-18T01:32:32;31.92;;;12.15;;
1751;SDS011;873;47.696;8.068;2022-12-18T01:34:58;28.97;;;10.87;;
1751;SDS011;873;47.696;8.068;2022-12-18T01:37:23;29.00;;;11.60;;
1751;SDS011;873;47.696;8.068;2022-12-18T01:39:49;33.03;;;12.30;;
1751;SDS011;873;47.696;8.068;2022-12-18T01:42:15;39.50;;;13.43;;
1751;SDS011;873;47.696;8.068;2022-12-18T01:47:56;31.15;;;11.80;;
1751;SDS011;873;47.696;8.068;2022-12-18T01:50:43;32.95;;;12.57;;
1751;SDS011;873;47.696;8.068;2022-12-18T01:53:11;34.28;;;12.77;;
1751;SDS011;873;47.696;8.068;2022-12-18T01:55:50;29.52;;;13.10;;
1751;SDS011;873;47.696;8.068;2022-12-18T01:58:22;38.95;;;12.65;;
1751;SDS011;873;47.696;8.068;2022-12-18T02:00:49;49.10;;;14.55;;
1751;SDS011;873;47.696;8.068;2022-12-18T02:03:15;40.23;;;14.80;;
1751;SDS011;873;47.696;8.068;2022-12-18T02:05:44;36.77;;;13.73;;
1751;SDS011;873;47.696;8.068;2022-12-18T02:08:16;58.78;;;15.02;;
1751;SDS011;873;47.696;8.068;2022-12-18T02:13:29;54.45;;;15.50;;
1751;SDS011;873;47.696;8.068;2022-12-18T02:19:26;55.28;;;17.08;;
1751;SDS011;873;47.696;8.068;2022-12-18T02:27:48;83.72;;;18.40;;
1751;SDS011;873;47.696;8.068;2022-12-18T02:30:14;89.55;;;18.10;;
1751;SDS011;873;47.696;8.068;2022-12-18T02:32:41;102.37;;;18.33;;
1751;SDS011;873;47.696;8.068;2022-12-18T02:35:10;79.30;;;19.13;;
1751;SDS011;873;47.696;8.068;2022-12-18T02:37:38;67.60;;;17.65;;
1751;SDS011;873;47.696;8.068;2022-12-18T02:40:04;58.05;;;17.52;;
1751;SDS011;873;47.696;8.068;2022-12-18T02:42:31;77.85;;;18.08;;
1751;SDS011;873;47.696;8.068;2022-12-18T02:44:57;123.38;;;20.95;;
1751;SDS011;873;47.696;8.068;2022-12-18T02:47:24;66.40;;;18.87;;
1751;SDS011;873;47.696;8.068;2022-12-18T02:52:45;89.90;;;18.98;;
1751;SDS011;873;47.696;8.068;2022-12-18T03:01:01;92.00;;;18.48;;
1751;SDS011;873;47.696;8.068;2022-12-18T03:03:36;98.30;;;19.70;;
1751;SDS011;873;47.696;8.068;2022-12-18T03:06:08;79.53;;;18.60;;
1751;SDS011;873;47.696;8.068;2022-12-18T03:08:37;60.97;;;16.98;;
1751;SDS011;873;47.696;8.068;2022-12-18T03:11:06;63.45;;;18.13;;
1751;SDS011;873;47.696;8.068;2022-12-18T03:13:43;59.03;;;18.52;;
1751;SDS011;873;47.696;8.068;2022-12-18T03:16:12;55.95;;;17.13;;
1751;SDS011;873;47.696;8.068;2022-12-18T03:18:44;50.08;;;16.88;;
1751;SDS011;873;47.696;8.068;2022-12-18T03:21:12;60.35;;;18.92;;
1751;SDS011;873;47.696;8.068;2022-12-18T03:23:40;53.92;;;18.25;;
1751;SDS011;873;47.696;8.068;2022-12-18T03:26:10;66.10;;;17.15;;
1751;SDS011;873;47.696;8.068;2022-12-18T03:28:40;86.80;;;18.15;;
1751;SDS011;873;47.696;8.068;2022-12-18T03:31:09;54.63;;;18.58;;
1751;SDS011;873;47.696;8.068;2022-12-18T03:33:38;84.78;;;19.48;;
1751;SDS011;873;47.696;8.068;2022-12-18T03:36:07;93.60;;;19.75;;
1751;SDS011;873;47.696;8.068;2022-12-18T03:38:33;64.60;;;17.90;;
1751;SDS011;873;47.696;8.068;2022-12-18T03:41:03;64.93;;;19.60;;
1751;SDS011;873;47.696;8.068;2022-12-18T03:46:24;89.80;;;18.38;;
1751;SDS011;873;47.696;8.068;2022-12-18T03:49:08;90.50;;;19.23;;
1751;SDS011;873;47.696;8.068;2022-12-18T03:54:19;68.63;;;18.00;;
1751;SDS011;873;47.696;8.068;2022-12-18T03:56:47;85.35;;;19.55;;
1751;SDS011;873;47.696;8.068;2022-12-18T03:59:16;76.80;;;19.42;;
1751;SDS011;873;47.696;8.068;2022-12-18T04:01:45;103.30;;;19.63;;
1751;SDS011;873;47.696;8.068;2022-12-18T04:04:11;58.95;;;17.90;;
1751;SDS011;873;47.696;8.068;2022-12-18T04:06:37;72.82;;;20.00;;
1751;SDS011;873;47.696;8.068;2022-12-18T04:09:04;105.05;;;20.83;;
1751;SDS011;873;47.696;8.068;2022-12-18T04:11:30;67.33;;;20.33;;
1751;SDS011;873;47.696;8.068;2022-12-18T04:13:56;72.97;;;18.70;;
1751;SDS011;873;47.696;8.068;2022-12-18T04:16:23;125.35;;;20.42;;
1751;SDS011;873;47.696;8.068;2022-12-18T04:18:49;55.28;;;16.95;;
1751;SDS011;873;47.696;8.068;2022-12-18T04:21:14;110.73;;;20.47;;
1751;SDS011;873;47.696;8.068;2022-12-18T04:23:40;61.17;;;17.80;;
1751;SDS011;873;47.696;8.068;2022-12-18T04:26:05;62.53;;;18.50;;
1751;SDS011;873;47.696;8.068;2022-12-18T04:28:31;69.23;;;18.83;;
1751;SDS011;873;47.696;8.068;2022-12-18T04:30:56;78.70;;;17.73;;
1751;SDS011;873;47.696;8.068;2022-12-18T04:33:22;76.70;;;19.10;;
1751;SDS011;873;47.696;8.068;2022-12-18T04:35:47;54.83;;;17.57;;
1751;SDS011;873;47.696;8.068;2022-12-18T04:38:13;65.63;;;17.97;;
1751;SDS011;873;47.696;8.068;2022-12-18T04:40:38;54.23;;;18.43;;
1751;SDS011;873;47.696;8.068;2022-12-18T04:43:04;81.77;;;19.13;;
1751;SDS011;873;47.696;8.068;2022-12-18T04:45:30;43.43;;;16.03;;
1751;SDS011;873;47.696;8.068;2022-12-18T04:47:57;43.05;;;16.05;;
1751;SDS011;873;47.696;8.068;2022-12-18T04:50:23;56.25;;;18.67;;
1751;SDS011;873;47.696;8.068;2022-12-18T04:52:48;68.47;;;17.70;;
1751;SDS011;873;47.696;8.068;2022-12-18T04:55:14;68.13;;;18.33;;
1751;SDS011;873;47.696;8.068;2022-12-18T04:57:39;76.17;;;18.63;;
1751;SDS011;873;47.696;8.068;2022-12-18T05:00:05;88.37;;;19.30;;
1751;SDS011;873;47.696;8.068;2022-12-18T05:02:31;56.75;;;18.30;;
1751;SDS011;873;47.696;8.068;2022-12-18T05:04:57;48.20;;;17.53;;
1751;SDS011;873;47.696;8.068;2022-12-18T05:07:22;62.50;;;19.30;;
1751;SDS011;873;47.696;8.068;2022-12-18T05:09:48;77.33;;;19.83;;
1751;SDS011;873;47.696;8.068;2022-12-18T05:12:13;62.60;;;18.53;;
1751;SDS011;873;47.696;8.068;2022-12-18T05:14:39;58.67;;;19.27;;
1751;SDS011;873;47.696;8.068;2022-12-18T05:17:04;70.20;;;18.70;;
1751;SDS011;873;47.696;8.068;2022-12-18T05:19:30;97.63;;;19.60;;
1751;SDS011;873;47.696;8.068;2022-12-18T05:21:56;101.73;;;21.03;;
1751;SDS011;873;47.696;8.068;2022-12-18T05:24:22;86.18;;;21.08;;
1751;SDS011;873;47.696;8.068;2022-12-18T05:26:48;58.50;;;19.97;;
1751;SDS011;873;47.696;8.068;2022-12-18T05:29:13;54.17;;;20.90;;
1751;SDS011;873;47.696;8.068;2022-12-18T05:31:39;122.90;;;21.00;;
1751;SDS011;873;47.696;8.068;2022-12-18T05:34:04;73.90;;;21.90;;
1751;SDS011;873;47.696;8.068;2022-12-18T05:36:30;89.40;;;20.30;;
1751;SDS011;873;47.696;8.068;2022-12-18T05:38:56;104.37;;;22.57;;
1751;SDS011;873;47.696;8.068;2022-12-18T05:41:21;85.60;;;20.73;;
1751;SDS011;873;47.696;8.068;2022-12-18T05:43:47;46.23;;;18.30;;
1751;SDS011;873;47.696;8.068;2022-12-18T05:46:13;52.30;;;20.17;;
1751;SDS011;873;47.696;8.068;2022-12-18T05:48:40;65.82;;;20.88;;
1751;SDS011;873;47.696;8.068;2022-12-18T05:51:08;137.02;;;23.77;;
1751;SDS011;873;47.696;8.068;2022-12-18T05:53:35;59.42;;;19.13;;
1751;SDS011;873;47.696;8.068;2022-12-18T05:56:02;81.65;;;22.02;;
1751;SDS011;873;47.696;8.068;2022-12-18T05:58:29;150.57;;;22.48;;
1751;SDS011;873;47.696;8.068;2022-12-18T06:00:55;97.03;;;21.40;;
1751;SDS011;873;47.696;8.068;2022-12-18T06:03:21;222.93;;;28.00;;
1751;SDS011;873;47.696;8.068;2022-12-18T06:05:46;158.47;;;24.17;;
1751;SDS011;873;47.696;8.068;2022-12-18T06:08:12;78.23;;;21.83;;
1751;SDS011;873;47.696;8.068;2022-12-18T06:10:38;70.82;;;20.10;;
1751;SDS011;873;47.696;8.068;2022-12-18T06:13:04;168.10;;;23.92;;
1751;SDS011;873;47.696;8.068;2022-12-18T06:15:30;99.28;;;22.08;;
1751;SDS011;873;47.696;8.068;2022-12-18T06:17:56;72.03;;;19.77;;
1751;SDS011;873;47.696;8.068;2022-12-18T06:20:22;81.40;;;20.50;;
1751;SDS011;873;47.696;8.068;2022-12-18T06:22:48;178.60;;;24.37;;
1751;SDS011;873;47.696;8.068;2022-12-18T06:25:14;197.30;;;26.27;;
1751;SDS011;873;47.696;8.068;2022-12-18T06:27:39;128.67;;;23.90;;
1751;SDS011;873;47.696;8.068;2022-12-18T06:30:05;71.80;;;24.07;;
1751;SDS011;873;47.696;8.068;2022-12-18T06:32:31;93.20;;;23.08;;
1751;SDS011;873;47.696;8.068;2022-12-18T06:34:57;126.40;;;22.60;;
1751;SDS011;873;47.696;8.068;2022-12-18T06:37:22;112.23;;;23.63;;
1751;SDS011;873;47.696;8.068;2022-12-18T06:39:51;130.05;;;23.85;;
1751;SDS011;873;47.696;8.068;2022-12-18T06:42:17;79.50;;;20.98;;
1751;SDS011;873;47.696;8.068;2022-12-18T06:44:42;126.40;;;24.00;;
1751;SDS011;873;47.696;8.068;2022-12-18T06:47:08;112.53;;;23.70;;
1751;SDS011;873;47.696;8.068;2022-12-18T06:49:34;174.10;;;23.67;;
1751;SDS011;873;47.696;8.068;2022-12-18T06:51:59;183.07;;;25.97;;
1751;SDS011;873;47.696;8.068;2022-12-18T06:54:25;147.73;;;23.63;;
1751;SDS011;873;47.696;8.068;2022-12-18T06:56:50;129.57;;;23.30;;
1751;SDS011;873;47.696;8.068;2022-12-18T06:59:16;163.30;;;24.33;;
1751;SDS011;873;47.696;8.068;2022-12-18T07:01:41;125.10;;;24.47;;
1751;SDS011;873;47.696;8.068;2022-12-18T07:04:07;91.03;;;22.40;;
1751;SDS011;873;47.696;8.068;2022-12-18T07:06:32;93.97;;;24.97;;
1751;SDS011;873;47.696;8.068;2022-12-18T07:08:58;122.30;;;23.57;;
1751;SDS011;873;47.696;8.068;2022-12-18T07:11:23;105.00;;;22.47;;
1751;SDS011;873;47.696;8.068;2022-12-18T07:13:49;114.97;;;20.17;;
1751;SDS011;873;47.696;8.068;2022-12-18T07:16:17;95.57;;;23.73;;
1751;SDS011;873;47.696;8.068;2022-12-18T07:18:43;86.90;;;20.95;;
1751;SDS011;873;47.696;8.068;2022-12-18T07:21:10;73.40;;;20.48;;
1751;SDS011;873;47.696;8.068;2022-12-18T07:23:37;61.65;;;21.80;;
1751;SDS011;873;47.696;8.068;2022-12-18T07:26:04;60.67;;;19.80;;
1751;SDS011;873;47.696;8.068;2022-12-18T07:28:32;119.55;;;22.65;;
1751;SDS011;873;47.696;8.068;2022-12-18T07:31:02;83.22;;;23.02;;
1751;SDS011;873;47.696;8.068;2022-12-18T07:33:28;117.10;;;22.02;;
1751;SDS011;873;47.696;8.068;2022-12-18T07:35:54;198.23;;;27.43;;
1751;SDS011;873;47.696;8.068;2022-12-18T07:38:19;172.37;;;24.23;;
1751;SDS011;873;47.696;8.068;2022-12-18T07:40:45;95.35;;;22.00;;
1751;SDS011;873;47.696;8.068;2022-12-18T07:43:11;93.60;;;21.87;;
1751;SDS011;873;47.696;8.068;2022-12-18T07:45:36;91.17;;;20.10;;
1751;SDS011;873;47.696;8.068;2022-12-18T07:48:02;102.60;;;21.90;;
1751;SDS011;873;47.696;8.068;2022-12-18T07:50:28;66.50;;;20.43;;
1751;SDS011;873;47.696;8.068;2022-12-18T07:52:53;90.87;;;22.43;;
1751;SDS011;873;47.696;8.068;2022-12-18T07:55:19;66.67;;;21.57;;
1751;SDS011;873;47.696;8.068;2022-12-18T07:57:45;84.43;;;20.77;;
1751;SDS011;873;47.696;8.068;2022-12-18T08:00:10;209.33;;;25.53;;
1751;SDS011;873;47.696;8.068;2022-12-18T08:02:38;130.77;;;23.23;;
1751;SDS011;873;47.696;8.068;2022-12-18T08:05:03;116.73;;;23.13;;
1751;SDS011;873;47.696;8.068;2022-12-18T08:07:29;141.60;;;22.70;;
1751;SDS011;873;47.696;8.068;2022-12-18T08:09:54;77.53;;;21.80;;
1751;SDS011;873;47.696;8.068;2022-12-18T08:12:20;100.93;;;23.93;;
1751;SDS011;873;47.696;8.068;2022-12-18T08:14:45;121.43;;;22.03;;
1751;SDS011;873;47.696;8.068;2022-12-18T08:17:11;72.80;;;21.07;;
1751;SDS011;873;47.696;8.068;2022-12-18T08:19:36;115.33;;;23.50;;
1751;SDS011;873;47.696;8.068;2022-12-18T08:22:02;137.63;;;23.17;;
1751;SDS011;873;47.696;8.068;2022-12-18T08:24:27;152.23;;;24.53;;
1751;SDS011;873;47.696;8.068;2022-12-18T08:26:53;156.20;;;24.23;;
1751;SDS011;873;47.696;8.068;2022-12-18T08:29:18;141.83;;;24.63;;
1751;SDS011;873;47.696;8.068;2022-12-18T08:31:44;104.87;;;23.47;;
1751;SDS011;873;47.696;8.068;2022-12-18T08:34:09;137.63;;;25.50;;
1751;SDS011;873;47.696;8.068;2022-12-18T08:36:35;314.90;;;29.40;;
1751;SDS011;873;47.696;8.068;2022-12-18T08:39:01;135.97;;;22.83;;
1751;SDS011;873;47.696;8.068;2022-12-18T08:41:26;180.13;;;25.57;;
1751;SDS011;873;47.696;8.068;2022-12-18T08:43:52;232.07;;;25.90;;
1751;SDS011;873;47.696;8.068;2022-12-18T08:46:38;118.18;;;25.38;;
1751;SDS011;873;47.696;8.068;2022-12-18T08:49:06;80.07;;;23.15;;
1751;SDS011;873;47.696;8.068;2022-12-18T08:51:32;252.32;;;28.90;;
1751;SDS011;873;47.696;8.068;2022-12-18T08:53:58;142.18;;;23.38;;
1751;SDS011;873;47.696;8.068;2022-12-18T08:56:24;133.93;;;22.33;;
1751;SDS011;873;47.696;8.068;2022-12-18T08:58:51;94.43;;;22.37;;
1751;SDS011;873;47.696;8.068;2022-12-18T09:01:18;96.43;;;23.05;;
1751;SDS011;873;47.696;8.068;2022-12-18T09:03:43;118.30;;;24.77;;
1751;SDS011;873;47.696;8.068;2022-12-18T09:06:12;133.20;;;23.48;;
1751;SDS011;873;47.696;8.068;2022-12-18T09:08:39;84.93;;;23.48;;
1751;SDS011;873;47.696;8.068;2022-12-18T09:11:09;108.37;;;24.23;;
1751;SDS011;873;47.696;8.068;2022-12-18T09:13:37;248.63;;;29.20;;
1751;SDS011;873;47.696;8.068;2022-12-18T09:16:03;192.60;;;26.63;;
1751;SDS011;873;47.696;8.068;2022-12-18T09:18:29;170.88;;;26.95;;
1751;SDS011;873;47.696;8.068;2022-12-18T09:20:55;198.70;;;26.00;;
1751;SDS011;873;47.696;8.068;2022-12-18T09:23:21;263.23;;;28.40;;
1751;SDS011;873;47.696;8.068;2022-12-18T09:25:47;119.23;;;25.07;;
1751;SDS011;873;47.696;8.068;2022-12-18T09:28:13;170.93;;;24.83;;
1751;SDS011;873;47.696;8.068;2022-12-18T09:30:40;299.55;;;30.42;;
1751;SDS011;873;47.696;8.068;2022-12-18T09:33:08;208.57;;;27.42;;
1751;SDS011;873;47.696;8.068;2022-12-18T09:35:37;150.67;;;26.87;;
1751;SDS011;873;47.696;8.068;2022-12-18T09:38:04;174.38;;;26.25;;
1751;SDS011;873;47.696;8.068;2022-12-18T09:40:33;178.23;;;27.47;;
1751;SDS011;873;47.696;8.068;2022-12-18T09:43:02;219.30;;;26.63;;
1751;SDS011;873;47.696;8.068;2022-12-18T09:45:30;150.25;;;22.40;;
1751;SDS011;873;47.696;8.068;2022-12-18T09:48:05;248.38;;;27.70;;
1751;SDS011;873;47.696;8.068;2022-12-18T09:50:34;115.38;;;23.10;;
1751;SDS011;873;47.696;8.068;2022-12-18T09:53:05;230.80;;;25.83;;
1751;SDS011;873;47.696;8.068;2022-12-18T09:55:34;323.33;;;27.38;;
1751;SDS011;873;47.696;8.068;2022-12-18T09:58:06;217.13;;;25.25;;
1751;SDS011;873;47.696;8.068;2022-12-18T10:00:46;205.57;;;26.95;;
1751;SDS011;873;47.696;8.068;2022-12-18T10:03:13;239.13;;;24.53;;
1751;SDS011;873;47.696;8.068;2022-12-18T10:08:21;189.07;;;22.70;;
1751;SDS011;873;47.696;8.068;2022-12-18T10:21:36;64.25;;;20.35;;
1751;SDS011;873;47.696;8.068;2022-12-18T10:27:29;63.38;;;19.45;;
1751;SDS011;873;47.696;8.068;2022-12-18T10:29:55;101.10;;;20.47;;
1751;SDS011;873;47.696;8.068;2022-12-18T10:32:24;61.22;;;19.13;;
1751;SDS011;873;47.696;8.068;2022-12-18T10:34:52;58.88;;;19.98;;
1751;SDS011;873;47.696;8.068;2022-12-18T10:37:21;68.82;;;20.17;;
1751;SDS011;873;47.696;8.068;2022-12-18T10:40:07;60.85;;;22.27;;
1751;SDS011;873;47.696;8.068;2022-12-18T10:42:38;52.83;;;21.90;;
1751;SDS011;873;47.696;8.068;2022-12-18T10:45:08;50.07;;;20.63;;
1751;SDS011;873;47.696;8.068;2022-12-18T10:47:42;56.33;;;20.08;;
1751;SDS011;873;47.696;8.068;2022-12-18T10:50:19;49.75;;;21.02;;
1751;SDS011;873;47.696;8.068;2022-12-18T10:52:57;47.20;;;20.13;;
1751;SDS011;873;47.696;8.068;2022-12-18T10:55:25;43.47;;;19.67;;
1751;SDS011;873;47.696;8.068;2022-12-18T10:57:55;48.15;;;21.67;;
1751;SDS011;873;47.696;8.068;2022-12-18T11:00:38;47.10;;;21.15;;
1751;SDS011;873;47.696;8.068;2022-12-18T11:03:07;40.47;;;18.90;;
1751;SDS011;873;47.696;8.068;2022-12-18T11:06:04;46.40;;;19.70;;
1751;SDS011;873;47.696;8.068;2022-12-18T11:08:31;41.95;;;19.20;;
1751;SDS011;873;47.696;8.068;2022-12-18T11:10:57;46.77;;;20.37;;
1751;SDS011;873;47.696;8.068;2022-12-18T11:13:23;49.57;;;21.23;;
1751;SDS011;873;47.696;8.068;2022-12-18T11:15:50;46.28;;;20.92;;
1751;SDS011;873;47.696;8.068;2022-12-18T11:18:19;39.83;;;20.13;;
1751;SDS011;873;47.696;8.068;2022-12-18T11:21:09;45.35;;;21.73;;
1751;SDS011;873;47.696;8.068;2022-12-18T11:23:36;47.28;;;22.17;;
1751;SDS011;873;47.696;8.068;2022-12-18T11:26:03;47.78;;;21.33;;
1751;SDS011;873;47.696;8.068;2022-12-18T11:28:37;49.25;;;21.50;;
1751;SDS011;873;47.696;8.068;2022-12-18T11:36:38;53.60;;;22.40;;
1751;SDS011;873;47.696;8.068;2022-12-18T11:44:48;94.28;;;21.95;;
1751;SDS011;873;47.696;8.068;2022-12-18T11:50:00;49.67;;;20.20;;
1751;SDS011;873;47.696;8.068;2022-12-18T11:52:31;59.35;;;20.95;;
1751;SDS011;873;47.696;8.068;2022-12-18T11:55:05;64.82;;;20.00;;
1751;SDS011;873;47.696;8.068;2022-12-18T12:00:27;51.65;;;19.92;;
1751;SDS011;873;47.696;8.068;2022-12-18T12:05:50;51.72;;;20.58;;
1751;SDS011;873;47.696;8.068;2022-12-18T12:08:34;47.83;;;20.05;;
1751;SDS011;873;47.696;8.068;2022-12-18T12:11:22;59.17;;;20.17;;
1751;SDS011;873;47.696;8.068;2022-12-18T12:22:40;43.25;;;19.27;;
1751;SDS011;873;47.696;8.068;2022-12-18T12:25:40;44.20;;;19.70;;
1751;SDS011;873;47.696;8.068;2022-12-18T12:38:42;161.75;;;22.70;;
1751;SDS011;873;47.696;8.068;2022-12-18T12:41:12;60.45;;;20.30;;
1751;SDS011;873;47.696;8.068;2022-12-18T12:44:01;83.43;;;19.83;;
1751;SDS011;873;47.696;8.068;2022-12-18T12:46:29;43.95;;;20.65;;
1751;SDS011;873;47.696;8.068;2022-12-18T12:48:56;53.17;;;20.83;;
1751;SDS011;873;47.696;8.068;2022-12-18T12:51:28;62.67;;;20.58;;
1751;SDS011;873;47.696;8.068;2022-12-18T12:53:59;99.15;;;20.92;;
1751;SDS011;873;47.696;8.068;2022-12-18T12:56:29;106.70;;;22.42;;
1751;SDS011;873;47.696;8.068;2022-12-18T13:07:12;327.95;;;29.20;;
1751;SDS011;873;47.696;8.068;2022-12-18T13:13:03;46.78;;;19.58;;
1751;SDS011;873;47.696;8.068;2022-12-18T13:15:41;54.25;;;20.10;;
1751;SDS011;873;47.696;8.068;2022-12-18T13:34:17;92.30;;;20.27;;
1751;SDS011;873;47.696;8.068;2022-12-18T13:36:52;52.35;;;18.20;;
1751;SDS011;873;47.696;8.068;2022-12-18T13:44:40;46.42;;;20.73;;
1751;SDS011;873;47.696;8.068;2022-12-18T13:47:33;46.10;;;19.50;;
1751;SDS011;873;47.696;8.068;2022-12-18T13:49:56;44.58;;;19.55;;
1751;SDS011;873;47.696;8.068;2022-12-18T13:52:23;41.67;;;17.83;;
1751;SDS011;873;47.696;8.068;2022-12-18T13:54:51;44.53;;;17.73;;
1751;SDS011;873;47.696;8.068;2022-12-18T14:02:55;119.03;;;20.52;;
1751;SDS011;873;47.696;8.068;2022-12-18T14:08:00;40.00;;;18.42;;
1751;SDS011;873;47.696;8.068;2022-12-18T14:10:30;42.72;;;18.77;;
1751;SDS011;873;47.696;8.068;2022-12-18T14:12:56;41.57;;;17.83;;
1751;SDS011;873;47.696;8.068;2022-12-18T14:18:02;39.42;;;17.05;;
1751;SDS011;873;47.696;8.068;2022-12-18T14:20:39;43.50;;;19.77;;
1751;SDS011;873;47.696;8.068;2022-12-18T14:23:24;42.70;;;18.92;;
1751;SDS011;873;47.696;8.068;2022-12-18T14:28:53;44.03;;;19.08;;
1751;SDS011;873;47.696;8.068;2022-12-18T14:31:20;49.80;;;19.23;;
1751;SDS011;873;47.696;8.068;2022-12-18T14:33:47;47.53;;;18.70;;
1751;SDS011;873;47.696;8.068;2022-12-18T14:36:21;41.73;;;18.00;;
1751;SDS011;873;47.696;8.068;2022-12-18T14:38:49;46.88;;;18.50;;
1751;SDS011;873;47.696;8.068;2022-12-18T14:41:17;54.83;;;20.25;;
1751;SDS011;873;47.696;8.068;2022-12-18T14:43:44;59.58;;;18.15;;
1751;SDS011;873;47.696;8.068;2022-12-18T14:51:57;88.18;;;20.10;;
1751;SDS011;873;47.696;8.068;2022-12-18T14:54:24;45.67;;;18.30;;
1751;SDS011;873;47.696;8.068;2022-12-18T14:56:57;150.60;;;21.70;;
1751;SDS011;873;47.696;8.068;2022-12-18T14:59:26;57.75;;;18.63;;
1751;SDS011;873;47.696;8.068;2022-12-18T15:01:56;103.85;;;19.27;;
1751;SDS011;873;47.696;8.068;2022-12-18T15:04:28;48.70;;;18.33;;
1751;SDS011;873;47.696;8.068;2022-12-18T15:12:47;88.20;;;19.52;;
1751;SDS011;873;47.696;8.068;2022-12-18T15:18:13;49.28;;;18.60;;
1751;SDS011;873;47.696;8.068;2022-12-18T15:20:43;96.95;;;18.90;;
1751;SDS011;873;47.696;8.068;2022-12-18T15:23:26;46.22;;;17.98;;
1751;SDS011;873;47.696;8.068;2022-12-18T15:26:00;69.22;;;19.35;;
1751;SDS011;873;47.696;8.068;2022-12-18T15:28:31;58.58;;;18.05;;
1751;SDS011;873;47.696;8.068;2022-12-18T15:34:02;80.55;;;17.77;;
1751;SDS011;873;47.696;8.068;2022-12-18T15:36:40;43.75;;;17.27;;
1751;SDS011;873;47.696;8.068;2022-12-18T15:39:06;40.70;;;17.50;;
1751;SDS011;873;47.696;8.068;2022-12-18T15:41:32;48.23;;;18.13;;
1751;SDS011;873;47.696;8.068;2022-12-18T15:43:58;59.42;;;19.02;;
1751;SDS011;873;47.696;8.068;2022-12-18T15:46:24;49.70;;;19.33;;
1751;SDS011;873;47.696;8.068;2022-12-18T15:48:55;50.80;;;18.63;;
1751;SDS011;873;47.696;8.068;2022-12-18T15:51:30;43.15;;;19.17;;
1751;SDS011;873;47.696;8.068;2022-12-18T15:53:58;80.78;;;19.90;;
1751;SDS011;873;47.696;8.068;2022-12-18T15:56:25;51.75;;;18.70;;
1751;SDS011;873;47.696;8.068;2022-12-18T15:59:11;48.67;;;18.92;;
1751;SDS011;873;47.696;8.068;2022-12-18T16:01:40;52.75;;;19.52;;
1751;SDS011;873;47.696;8.068;2022-12-18T16:04:06;52.88;;;19.83;;
1751;SDS011;873;47.696;8.068;2022-12-18T16:06:32;48.63;;;20.73;;
1751;SDS011;873;47.696;8.068;2022-12-18T16:08:57;43.43;;;19.27;;
1751;SDS011;873;47.696;8.068;2022-12-18T16:11:25;52.47;;;20.17;;
1751;SDS011;873;47.696;8.068;2022-12-18T16:14:16;41.30;;;17.65;;
1751;SDS011;873;47.696;8.068;2022-12-18T16:16:54;45.60;;;18.00;;
1751;SDS011;873;47.696;8.068;2022-12-18T16:19:21;44.42;;;17.25;;
1751;SDS011;873;47.696;8.068;2022-12-18T16:21:47;43.00;;;18.08;;
1751;SDS011;873;47.696;8.068;2022-12-18T16:24:15;43.90;;;18.77;;
1751;SDS011;873;47.696;8.068;2022-12-18T16:26:42;51.65;;;20.05;;
1751;SDS011;873;47.696;8.068;2022-12-18T16:29:08;38.85;;;16.80;;
1751;SDS011;873;47.696;8.068;2022-12-18T16:31:34;40.35;;;17.23;;
1751;SDS011;873;47.696;8.068;2022-12-18T16:34:18;44.13;;;17.83;;
1751;SDS011;873;47.696;8.068;2022-12-18T16:36:49;40.90;;;18.13;;
1751;SDS011;873;47.696;8.068;2022-12-18T16:39:15;43.00;;;16.60;;
1751;SDS011;873;47.696;8.068;2022-12-18T16:41:41;47.13;;;18.88;;
1751;SDS011;873;47.696;8.068;2022-12-18T16:44:07;44.40;;;18.27;;
1751;SDS011;873;47.696;8.068;2022-12-18T16:46:33;45.70;;;17.43;;
1751;SDS011;873;47.696;8.068;2022-12-18T16:48:58;47.27;;;18.87;;
1751;SDS011;873;47.696;8.068;2022-12-18T16:51:25;45.55;;;18.77;;
1751;SDS011;873;47.696;8.068;2022-12-18T16:53:52;44.45;;;17.23;;
1751;SDS011;873;47.696;8.068;2022-12-18T16:56:19;41.67;;;18.40;;
1751;SDS011;873;47.696;8.068;2022-12-18T16:58:50;43.95;;;17.50;;
1751;SDS011;873;47.696;8.068;2022-12-18T17:01:17;45.90;;;18.08;;
1751;SDS011;873;47.696;8.068;2022-12-18T17:03:43;47.23;;;17.97;;
1751;SDS011;873;47.696;8.068;2022-12-18T17:06:15;48.25;;;18.83;;
1751;SDS011;873;47.696;8.068;2022-12-18T17:08:41;50.10;;;18.70;;
1751;SDS011;873;47.696;8.068;2022-12-18T17:11:06;43.57;;;17.57;;
1751;SDS011;873;47.696;8.068;2022-12-18T17:13:32;52.97;;;22.52;;
1751;SDS011;873;47.696;8.068;2022-12-18T17:16:02;56.17;;;19.80;;
1751;SDS011;873;47.696;8.068;2022-12-18T17:18:29;49.20;;;19.92;;
1751;SDS011;873;47.696;8.068;2022-12-18T17:20:59;47.17;;;19.55;;
1751;SDS011;873;47.696;8.068;2022-12-18T17:23:27;51.30;;;20.75;;
1751;SDS011;873;47.696;8.068;2022-12-18T17:25:54;53.83;;;20.75;;
1751;SDS011;873;47.696;8.068;2022-12-18T17:28:21;52.38;;;19.50;;
1751;SDS011;873;47.696;8.068;2022-12-18T17:30:47;45.83;;;18.77;;
1751;SDS011;873;47.696;8.068;2022-12-18T17:33:13;50.80;;;19.67;;
1751;SDS011;873;47.696;8.068;2022-12-18T17:35:39;46.83;;;18.10;;